Station: Mount Gellibrand  

  Atmospheric Gas Attenuation - ITU Rec 676-11   ----------------- dB/100km -----------------
Date Time Temp RH % AH g/m3 Dew Point Wind Direction Speed kph Gust kph Barometer mB Rainfall Since 9am 24GHz 47GHz 76GHz 122GHz 134GHz 241GHz
08/05 12:40 13.5 80 9.36 10.1 41 46 1023.5 0 21.2 27.6 43.5 114.3 109.9 378.6
08/05 12:30 13.7 77 9.12 9.7 33 43 1023.7 0 20.7 27.2 42.4 111.4 106.4 366.3
08/05 12:20 13.9 81 9.71 10.7 22 28 1023.9 0 21.9 28.1 44.8 117.6 114.2 393.6
08/05 12:10 13.9 81 9.71 10.7 32 39 1023.9 0 21.9 28.1 44.8 117.6 114.2 393.6
08/05 12:00 13.4 84 9.77 10.8 35 48 1024 0 22.1 28.4 45.3 119.1 115.8 399.1
08/05 11:50 13.1 88 10.04 11.1 37 43 1024 0 22.7 28.9 46.7 122.6 120.0 414.0
08/05 11:40 13.2 82 9.42 10.3 46 56 1023.9 0 21.4 27.8 44.0 115.4 111.2 383.1
08/05 11:30 13.6 83 9.77 10.8 41 54 1023.9 0 22.1 28.3 45.2 118.8 115.5 398.1
08/05 11:20 13.6 86 10.12 11.4 35 44 1024 0 22.8 28.9 46.7 122.8 120.4 415.2
08/05 11:10 13.1 90 10.27 11.5 37 43 1023.8 0 23.2 29.3 47.7 125.3 123.3 425.3
08/05 11:00 12.3 92 9.99 11 39 50 1023.8 0 22.6 29.1 46.9 123.3 120.6 415.7
08/05 10:50 12.7 88 9.8 10.7 37 39 1023.9 0 22.2 28.7 45.9 120.5 117.3 404.2
08/05 10:40 13 88 9.98 11 26 33 1023.7 0 22.6 28.9 46.5 122.1 119.3 411.4
08/05 10:30 13.1 93 10.61 12 33 48 1023.6 0 23.9 29.9 49.1 129.2 128.1 442.3
08/05 10:20 12.3 94 10.21 11.3 39 46 1023.3 0 23.1 29.5 47.9 125.8 123.7 426.6
08/05 10:10 11.7 94 9.83 10.7 39 44 1023.2 0 22.3 29.0 46.6 122.3 119.2 410.7
08/05 10:00 11.6 96 9.98 11 37 48 1023.2 0 22.7 29.3 47.3 124.2 121.5 418.8
08/05 09:50 11.3 98 10 11 35 41 1023.2 0 22.7 29.4 47.6 125.0 122.2 421.4
08/05 09:40 11.4 98 10.06 11.1 39 44 1023 0 22.8 29.5 47.7 125.5 122.9 423.9
08/05 09:30 11.7 98 10.25 11.4 28 41 1023 0 23.2 29.7 48.4 127.2 125.2 431.8
08/05 09:20 11.4 99 10.16 11.2 33 41 1022.8 0 23.1 29.7 48.2 126.6 124.4 428.9
08/05 09:10 11.2 99 10.04 11 32 37 1022.8 0 22.8 29.5 47.8 125.5 123.0 423.9
08/05 09:00 11.1 100 10.07 11.1 33 43 1022.6 0 22.9 29.6 48.0 126.0 123.5 425.9
08/05 08:50 11.1 100 10.07 11.1 35 41 1022.5 4.8 22.9 29.6 47.9 126.0 123.5 425.9
08/05 08:40 11.2 100 10.14 11.2 35 37 1022.6 4.8 23.0 29.7 48.2 126.7 124.4 428.9
08/05 08:30 10.9 100 9.95 10.9 32 41 1022.4 4.8 22.6 29.5 47.5 124.9 122.1 420.8
08/05 08:20 11 100 10.01 11 33 37 1022.4 4.8 22.8 29.5 47.7 125.5 122.8 423.3
08/05 08:10 10.6 100 9.76 10.6 37 43 1022.4 4.8 22.2 29.2 46.9 123.2 119.8 412.8
08/05 08:00 10.6 100 9.76 10.6 32 44 1022.4 4.8 22.2 29.2 46.9 123.2 119.8 412.8
08/05 07:50 10.6 100 9.76 10.7 30 35 1022.2 4.8 22.2 29.2 46.9 123.1 119.8 412.8
08/05 07:40 10.3 100 9.58 10.4 32 37 1022 4.8 21.9 29.0 46.2 121.5 117.6 405.2
08/05 07:30 10.4 100 9.64 10.4 30 35 1021.8 4.8 22.0 29.0 46.4 122.0 118.3 407.6
08/05 07:20 10.5 100 9.7 10.6 33 39 1021.8 4.6 22.1 29.1 46.6 122.6 119.0 410.1
08/05 07:10 10.3 100 9.58 10.4 30 33 1021.6 4.6 21.9 29.0 46.2 121.4 117.6 405.1
08/05 07:00 10.5 100 9.7 10.5 32 43 1021.5 4.6 22.1 29.1 46.6 122.5 119.0 410.0
08/05 06:50 10.5 100 9.7 10.6 32 33 1021.4 4.6 22.1 29.1 46.6 122.5 119.0 410.0
08/05 06:40 10.6 100 9.76 10.7 35 37 1021.3 4.6 22.2 29.2 46.8 123.0 119.7 412.5
08/05 06:30 10.5 100 9.7 10.5 32 41 1021.2 4.6 22.1 29.1 46.6 122.5 119.0 409.9
08/05 06:20 10.5 100 9.7 10.6 35 41 1021 4.6 22.1 29.1 46.6 122.5 119.0 409.9
08/05 06:10 10.5 100 9.7 10.6 33 37 1020.9 4.6 22.1 29.1 46.6 122.4 119.0 409.8
08/05 06:00 10.6 100 9.76 10.6 33 46 1020.9 4.6 22.2 29.2 46.8 123.0 119.7 412.3
08/05 05:50 10.5 100 9.7 10.6 35 39 1020.8 4.6 22.1 29.1 46.6 122.4 118.9 409.8
08/05 05:40 10.5 100 9.7 10.6 39 43 1020.7 4.6 22.1 29.1 46.6 122.4 118.9 409.8
08/05 05:30 10.4 100 9.64 10.4 37 46 1020.6 4.6 22.0 29.0 46.4 121.9 118.2 407.2
08/05 05:20 10.5 100 9.7 10.6 35 39 1020.5 4.6 22.1 29.1 46.6 122.4 118.9 409.7
08/05 05:10 10.4 100 9.64 10.5 37 43 1020.3 4.6 22.0 29.0 46.4 121.8 118.2 407.1
08/05 05:00 10.4 100 9.64 10.4 39 50 1020.2 4.4 22.0 29.0 46.4 121.8 118.2 407.1
08/05 04:50 10.4 100 9.64 10.5 37 43 1020.1 4.4 22.0 29.0 46.4 121.8 118.2 407.1
08/05 04:40 10.4 100 9.64 10.4 33 43 1020.1 4.4 22.0 29.0 46.4 121.8 118.2 407.1
08/05 04:30 10.4 100 9.64 10.4 41 57 1020 4.4 22.0 29.0 46.3 121.8 118.2 407.1
08/05 04:20 10.5 100 9.7 10.5 41 50 1019.8 4.4 22.1 29.0 46.5 122.3 118.9 409.5
08/05 04:10 10.5 100 9.7 10.6 44 50 1019.7 4.4 22.1 29.0 46.5 122.3 118.8 409.5
08/05 04:00 10.5 100 9.7 10.5 37 48 1019.7 4.2 22.1 29.0 46.5 122.3 118.8 409.5
08/05 03:50 10.6 100 9.76 10.7 35 43 1019.6 4.2 22.2 29.1 46.7 122.8 119.5 411.9
08/05 03:40 10.6 100 9.76 10.7 39 44 1019.5 4.2 22.2 29.1 46.7 122.8 119.5 411.9
08/05 03:30 10.6 100 9.76 10.6 43 56 1019.3 4.2 22.2 29.1 46.7 122.8 119.5 411.8
08/05 03:20 10.6 100 9.76 10.7 48 57 1019.1 4.2 22.2 29.1 46.7 122.8 119.5 411.8
08/05 03:10 10.6 100 9.76 10.7 32 41 1019.3 4.2 22.2 29.1 46.7 122.8 119.5 411.8
08/05 03:00 10.5 100 9.7 10.5 44 59 1019.2 4.2 22.1 29.0 46.5 122.2 118.8 409.3
08/05 02:50 10.6 100 9.76 10.7 41 50 1019.1 4.2 22.2 29.1 46.7 122.8 119.5 411.8
08/05 02:40 10.7 100 9.82 10.8 43 48 1019.3 4.2 22.4 29.2 46.9 123.3 120.2 414.3
08/05 02:30 10.7 100 9.82 10.7 39 50 1019.1 4 22.4 29.2 46.9 123.3 120.2 414.3
08/05 02:20 10.6 100 9.76 10.7 43 48 1019.4 4 22.2 29.1 46.7 122.8 119.5 411.9
08/05 02:10 10.6 100 9.76 10.7 43 54 1019.4 3.8 22.2 29.1 46.7 122.8 119.5 411.9
08/05 02:00 10.5 100 9.7 10.5 41 56 1019.3 3.8 22.1 29.0 46.5 122.3 118.8 409.3
08/05 01:50 10.5 100 9.7 10.6 37 48 1019.5 3.8 22.1 29.0 46.5 122.3 118.8 409.4
08/05 01:40 10.5 100 9.7 10.6 32 41 1019.7 3.8 22.1 29.0 46.5 122.3 118.8 409.5
08/05 01:30 10.4 100 9.64 10.4 39 48 1019.8 3.8 22.0 29.0 46.3 121.8 118.1 407.0
08/05 01:20 10.4 100 9.64 10.5 35 43 1020 3.8 22.0 29.0 46.3 121.8 118.2 407.1
08/05 01:10 10.4 100 9.64 10.5 37 48 1020.1 3.8 22.0 29.0 46.4 121.8 118.2 407.1
08/05 01:00 10.3 100 9.58 10.3 37 48 1020.4 3.8 21.9 28.9 46.2 121.3 117.5 404.7
08/05 00:50 10.3 100 9.58 10.4 35 43 1020.4 3.6 21.9 28.9 46.2 121.3 117.5 404.7
08/05 00:40 10.2 100 9.52 10.3 32 35 1020.6 3.6 21.7 28.9 46.0 120.8 116.8 402.2
08/05 00:30 10.3 100 9.58 10.3 33 44 1020.7 3.6 21.9 28.9 46.2 121.3 117.5 404.8
08/05 00:20 10.3 100 9.58 10.4 37 44 1020.6 3.6 21.9 28.9 46.2 121.3 117.5 404.7
08/05 00:10 10.2 100 9.52 10.3 35 44 1020.7 3.6 21.7 28.9 46.0 120.8 116.8 402.3
08/05 00:00 10.2 100 9.52 10.2 35 46 1020.8 3.6 21.7 28.9 46.0 120.8 116.8 402.3
07/05 23:50 10.2 100 9.52 10.3 39 44 1020.8 3.6 21.7 28.9 46.0 120.8 116.8 402.3
07/05 23:40 10.1 100 9.46 10.2 39 48 1020.9 3.4 21.6 28.8 45.8 120.3 116.1 399.8
07/05 23:30 10.1 100 9.46 10.1 37 50 1021 3.4 21.6 28.8 45.8 120.3 116.1 399.9
07/05 23:20 9.9 100 9.34 10 39 44 1020.8 3.4 21.4 28.6 45.4 119.2 114.7 394.8
07/05 23:10 9.7 100 9.22 9.8 28 32 1021 3.2 21.1 28.5 45.0 118.1 113.3 389.8
07/05 23:00 9.7 100 9.22 9.7 33 44 1021.2 3 21.1 28.5 45.0 118.1 113.3 389.9
07/05 22:50 9.6 100 9.16 9.7 33 37 1021.6 3 21.0 28.5 44.8 117.6 112.6 387.5
07/05 22:40 9.4 100 9.05 9.5 33 41 1021.6 3 20.8 28.3 44.4 116.6 111.3 383.0
07/05 22:30 9.2 100 8.93 9.2 35 43 1021.5 2.8 20.5 28.2 44.0 115.5 109.9 377.9
07/05 22:20 9.1 100 8.88 9.2 33 37 1021.5 2.8 20.4 28.1 43.8 115.1 109.3 375.9
07/05 22:10 9 100 8.82 9.1 39 43 1021.7 2.8 20.3 28.1 43.7 114.6 108.6 373.4
07/05 22:00 8.8 100 8.71 8.8 35 44 1021.7 2.6 20.1 27.9 43.3 113.6 107.3 368.9
07/05 21:50 8.7 100 8.65 8.8 33 37 1021.8 2.6 19.9 27.9 43.1 113.0 106.6 366.4
07/05 21:40 8.6 100 8.6 8.7 33 39 1021.7 2.2 19.8 27.8 42.9 112.6 106.0 364.3
07/05 21:30 8.6 100 8.6 8.6 37 46 1021.5 2 19.8 27.8 42.9 112.6 106.0 364.3
07/05 21:20 8.6 100 8.6 8.7 39 44 1021.5 1.8 19.8 27.8 42.9 112.6 106.0 364.3
07/05 21:10 8.5 100 8.54 8.6 35 39 1021.5 1.6 19.7 27.7 42.7 112.0 105.3 361.8
07/05 21:00 8.5 100 8.54 8.5 39 48 1021.5 1.6 19.7 27.7 42.7 112.0 105.3 361.8
07/05 20:50 8.4 100 8.49 8.5 41 52 1021.5 1.6 19.6 27.7 42.5 111.6 104.7 359.7
07/05 20:40 8.4 100 8.49 8.5 37 41 1021.6 1.6 19.6 27.7 42.5 111.6 104.7 359.8
07/05 20:30 8.4 100 8.49 8.4 35 43 1021.7 1.4 19.6 27.7 42.5 111.6 104.7 359.8
07/05 20:20 8.3 100 8.43 8.4 33 37 1021.8 1.2 19.5 27.6 42.3 111.1 104.0 357.3
07/05 20:10 8.3 100 8.43 8.4 39 43 1021.8 1.2 19.5 27.6 42.3 111.1 104.0 357.3

Last Refresh: 08-May-2026 12:09:24

Bureau of Meteorology